Time;durP1;ratioP1;P1;durP2;ratioP2;P2;SDS_P1;SDS_P2;PMS_P1;PMS_P2;Temp;Humidity;BMP_temperature;BMP_pressure;BME280_temperature;BME280_humidity;BME280_pressure;Samples;Min_cycle;Max_cycle;Signal;HPM_P1;HPM_P2
2021/12/24 14:45:55;;;;;;;3.33;2.20;;;10.20;94.50;;;;;;5036206;27;2004412;-74
2021/12/24 14:48:26;;;;;;;5.43;2.40;;;10.00;93.80;;;;;;5054882;28;20041;-78
2021/12/24 14:51:02;;;;;;;5.05;2.60;;;10.40;94.10;;;;;;5018147;28;20049;-79
2021/12/24 14:53:41;;;;;;;5.10;3.15;;;10.60;93.90;;;;;;5016746;28;20145;-78
2021/12/24 14:56:08;;;;;;;3.75;2.45;;;10.60;93.60;;;;;;5018314;28;20136;-78
2021/12/24 14:58:41;;;;;;;4.22;2.25;;;10.70;93.90;;;;;;5028735;28;20055;-80
2021/12/24 15:01:21;;;;;;;5.60;2.95;;;10.70;94.00;;;;;;5059696;28;20105;-82
2021/12/24 15:04:01;;;;;;;6.55;3.13;;;10.70;93.80;;;;;;5020244;28;20403;-78
2021/12/24 15:06:30;;;;;;;3.88;1.98;;;10.70;94.10;;;;;;5020529;28;20492;-79
2021/12/24 15:08:58;;;;;;;7.13;2.20;;;10.80;94.30;;;;;;5047540;28;20044;-79
2021/12/24 15:11:25;;;;;;;2.42;1.88;;;10.90;94.30;;;;;;5022230;28;20041;-81
2021/12/24 15:14:01;;;;;;;3.80;1.92;;;10.80;94.30;;;;;;5017912;28;20102;-83
2021/12/24 15:16:30;;;;;;;2.75;1.88;;;10.60;94.10;;;;;;5036030;28;20045;-79
2021/12/24 15:18:57;;;;;;;7.65;2.83;;;10.30;94.50;;;;;;5033500;28;20522;-78
2021/12/24 15:21:24;;;;;;;7.95;3.00;;;10.30;95.20;;;;;;5037130;28;20052;-77
2021/12/24 15:23:51;;;;;;;4.28;2.53;;;10.40;95.40;;;;;;5017676;28;20037;-77
2021/12/24 15:26:17;;;;;;;7.45;2.90;;;10.60;95.30;;;;;;5017722;28;20426;-76
2021/12/24 15:28:47;;;;;;;3.05;2.50;;;10.80;95.00;;;;;;5040881;28;20131;-83
2021/12/24 15:31:14;;;;;;;4.70;3.38;;;10.80;94.60;;;;;;5023375;28;20461;-82
2021/12/24 15:33:40;;;;;;;3.45;2.63;;;10.60;94.30;;;;;;5027580;28;20550;-82
2021/12/24 15:36:06;;;;;;;4.63;2.72;;;10.30;94.20;;;;;;5026678;28;20105;-84
2021/12/24 15:38:32;;;;;;;2.97;2.50;;;10.20;94.20;;;;;;5048175;28;20123;-84
2021/12/24 15:40:58;;;;;;;3.80;2.70;;;9.90;94.20;;;;;;5023064;28;20048;-83
2021/12/24 15:43:24;;;;;;;4.28;2.88;;;9.80;94.30;;;;;;5024490;28;20044;-84
2021/12/24 15:45:53;;;;;;;3.45;2.08;;;9.60;94.40;;;;;;5032264;28;20059;-84
2021/12/24 15:48:19;;;;;;;6.22;4.00;;;9.80;94.80;;;;;;5037170;28;20075;-81
2021/12/24 15:54:17;;;;;;;9.07;6.07;;;9.90;94.50;;;;;;5071967;28;20141;-78
2021/12/24 15:57:19;;;;;;;;;;;;;;;;;;;;;
2021/12/24 15:59:44;;;;;;;6.78;5.13;;;10.50;93.70;;;;;;5084318;28;20051;-84
2021/12/24 16:02:10;;;;;;;7.63;5.25;;;10.30;93.30;;;;;;5036099;28;20052;-88
2021/12/24 16:04:36;;;;;;;6.90;5.10;;;10.10;93.30;;;;;;5063351;28;20048;-81
2021/12/24 16:07:05;;;;;;;6.78;4.10;;;10.00;93.40;;;;;;5042653;28;20055;-85
2021/12/24 16:09:31;;;;;;;6.47;5.50;;;10.00;94.00;;;;;;5046008;28;20044;-83
2021/12/24 16:11:57;;;;;;;7.13;5.38;;;10.00;93.80;;;;;;5029288;28;20094;-79
2021/12/24 16:14:23;;;;;;;6.28;5.43;;;9.90;93.50;;;;;;5039432;28;20040;-83
2021/12/24 16:16:50;;;;;;;4.90;4.22;;;10.00;93.70;;;;;;5040725;28;20055;-83
2021/12/24 16:19:19;;;;;;;4.72;4.20;;;9.90;93.40;;;;;;5037597;28;20137;-82
2021/12/24 16:21:48;;;;;;;5.10;4.40;;;9.80;93.20;;;;;;5039871;28;20051;-83
2021/12/24 16:24:14;;;;;;;7.45;4.85;;;9.70;93.20;;;;;;5039710;28;20922;-83
2021/12/24 16:26:40;;;;;;;6.80;5.57;;;9.60;93.20;;;;;;5023660;28;20126;-83
2021/12/24 16:29:08;;;;;;;6.75;5.45;;;9.50;93.20;;;;;;5040875;28;20136;-84
2021/12/24 16:31:34;;;;;;;8.02;6.70;;;9.40;93.20;;;;;;5059570;28;20543;-83
2021/12/24 16:34:00;;;;;;;7.65;6.82;;;9.30;93.20;;;;;;5057319;28;20327;-82
2021/12/24 16:36:26;;;;;;;8.25;6.47;;;9.20;93.20;;;;;;5025329;28;20052;-82
2021/12/24 16:39:02;;;;;;;6.40;5.47;;;9.10;93.20;;;;;;5026088;28;20480;-78
2021/12/24 16:41:47;;;;;;;6.60;4.03;;;9.00;93.10;;;;;;5039527;28;20102;-78
2021/12/24 16:44:22;;;;;;;6.68;4.43;;;9.30;94.20;;;;;;5041917;28;20040;-82
2021/12/24 16:46:48;;;;;;;4.95;3.83;;;9.70;94.30;;;;;;5011325;28;20098;-83
2021/12/24 16:49:13;;;;;;;4.78;3.72;;;9.70;93.50;;;;;;5036361;28;20560;-83
2021/12/24 16:51:40;;;;;;;5.63;4.60;;;9.70;93.10;;;;;;5019085;28;20045;-83
2021/12/24 16:54:06;;;;;;;6.10;5.13;;;9.60;92.80;;;;;;5001153;28;20495;-83
2021/12/24 16:56:31;;;;;;;6.63;5.90;;;9.50;92.70;;;;;;4998759;28;20041;-83
2021/12/24 16:58:58;;;;;;;6.75;5.43;;;9.40;92.60;;;;;;5020951;28;20045;-83
2021/12/24 17:01:24;;;;;;;6.78;5.78;;;9.20;92.60;;;;;;5003429;28;20044;-85
2021/12/24 17:03:51;;;;;;;6.63;5.50;;;9.10;92.60;;;;;;4998941;28;20151;-77
2021/12/24 17:06:19;;;;;;;7.03;5.20;;;9.00;92.70;;;;;;5003991;28;20044;-81
2021/12/24 17:08:46;;;;;;;6.22;4.53;;;9.40;94.30;;;;;;5007846;28;20048;-82
2021/12/24 17:11:12;;;;;;;5.78;4.57;;;9.40;93.50;;;;;;5037991;28;20538;-81
2021/12/24 17:13:38;;;;;;;6.53;4.60;;;9.50;93.30;;;;;;5023105;28;20044;-82
2021/12/24 17:16:09;;;;;;;6.55;3.90;;;9.40;92.60;;;;;;5017210;28;20052;-85
2021/12/24 17:18:34;;;;;;;6.50;4.03;;;9.40;93.10;;;;;;5023095;28;20045;-78
2021/12/24 17:21:08;;;;;;;6.30;3.70;;;9.60;93.30;;;;;;5020398;28;20106;-83
2021/12/24 17:23:34;;;;;;;6.07;4.00;;;9.60;92.70;;;;;;5016467;28;20032;-81
2021/12/24 17:25:59;;;;;;;4.95;3.60;;;9.50;92.40;;;;;;5019227;28;20102;-83
2021/12/24 17:28:25;;;;;;;4.25;2.72;;;9.40;92.40;;;;;;5003394;28;20055;-85
2021/12/24 17:30:53;;;;;;;5.00;2.45;;;9.30;92.30;;;;;;5012195;28;20186;-85
2021/12/24 17:33:19;;;;;;;4.38;2.80;;;9.10;92.30;;;;;;4991624;28;20531;-82
2021/12/24 17:35:45;;;;;;;5.97;2.50;;;9.00;92.40;;;;;;5012753;28;20124;-81
2021/12/24 17:38:11;;;;;;;5.60;2.30;;;8.90;92.50;;;;;;5021909;28;20044;-84
2021/12/24 17:40:40;;;;;;;4.20;2.38;;;8.70;92.50;;;;;;5019749;28;20090;-83
2021/12/24 17:43:11;;;;;;;3.20;2.20;;;8.60;92.60;;;;;;5003283;28;20045;-81
2021/12/24 17:45:38;;;;;;;3.90;2.22;;;8.70;92.70;;;;;;4998541;28;20095;-83
2021/12/24 17:48:04;;;;;;;5.10;2.65;;;8.50;92.70;;;;;;5011233;28;20102;-82
2021/12/24 17:50:30;;;;;;;5.28;2.83;;;8.40;92.70;;;;;;5003309;28;20044;-83
2021/12/24 17:52:56;;;;;;;5.63;2.80;;;8.30;92.70;;;;;;5004970;28;20157;-84
2021/12/24 17:55:22;;;;;;;5.22;2.88;;;8.30;92.70;;;;;;5030329;28;20068;-79
2021/12/24 17:57:48;;;;;;;6.15;3.70;;;8.20;92.80;;;;;;4998804;28;20524;-79
2021/12/24 18:00:15;;;;;;;6.22;3.40;;;8.10;92.80;;;;;;5018311;28;20088;-83
2021/12/24 18:02:41;;;;;;;6.20;3.75;;;8.10;92.80;;;;;;5010666;28;20045;-83
2021/12/24 18:05:10;;;;;;;8.15;3.50;;;8.10;92.80;;;;;;5016394;28;20123;-84
2021/12/24 18:07:36;;;;;;;9.05;4.07;;;8.00;92.80;;;;;;4997936;28;20544;-84
2021/12/24 18:10:03;;;;;;;7.43;3.85;;;7.90;92.70;;;;;;5021437;28;20124;-83
2021/12/24 18:12:32;;;;;;;8.10;4.35;;;7.80;92.90;;;;;;5002208;28;20132;-85
2021/12/24 18:14:59;;;;;;;10.05;4.93;;;7.80;92.70;;;;;;5012710;28;20624;-83
2021/12/24 18:17:25;;;;;;;8.00;4.88;;;7.70;92.70;;;;;;5004583;28;20041;-80
2021/12/24 18:19:50;;;;;;;7.72;5.32;;;7.70;92.70;;;;;;5036941;28;20592;-83
2021/12/24 18:22:18;;;;;;;8.65;5.88;;;7.60;92.70;;;;;;5005613;28;20052;-84
2021/12/24 18:24:44;;;;;;;8.65;5.53;;;7.60;92.70;;;;;;5020045;28;20127;-84
2021/12/24 18:27:13;;;;;;;8.85;5.80;;;7.60;92.70;;;;;;5022523;28;20140;-85
2021/12/24 18:29:39;;;;;;;12.93;6.45;;;7.50;92.70;;;;;;5005490;28;20182;-85
2021/12/24 18:32:05;;;;;;;10.75;6.07;;;7.50;92.70;;;;;;5020915;28;20045;-85
2021/12/24 18:34:31;;;;;;;12.15;6.85;;;7.40;92.80;;;;;;5002472;28;20489;-86
2021/12/24 18:36:57;;;;;;;13.52;8.27;;;7.40;92.70;;;;;;5017331;28;20045;-83
2021/12/24 18:39:23;;;;;;;13.07;8.55;;;7.40;92.70;;;;;;5018034;28;20127;-85
2021/12/24 18:41:48;;;;;;;16.25;9.35;;;7.30;92.70;;;;;;5005355;28;20108;-85
2021/12/24 18:47:09;;;;;;;15.88;11.88;;;7.30;92.80;;;;;;5098477;27;20200;-86
2021/12/24 18:49:35;;;;;;;21.92;11.73;;;7.20;92.70;;;;;;5031811;28;20085;-79
2021/12/24 18:52:01;;;;;;;19.02;12.15;;;7.20;92.70;;;;;;5017919;28;20131;-78
2021/12/24 18:54:27;;;;;;;19.42;12.25;;;7.20;92.70;;;;;;5037261;28;20040;-80
2021/12/24 18:56:52;;;;;;;24.13;13.68;;;7.10;92.70;;;;;;5031828;28;20051;-80
2021/12/24 18:59:18;;;;;;;21.83;14.77;;;7.10;92.80;;;;;;5038176;28;20048;-80
2021/12/24 19:01:44;;;;;;;21.13;14.65;;;7.00;92.70;;;;;;5034667;28;20061;-81
2021/12/24 19:04:10;;;;;;;27.45;15.20;;;7.00;92.70;;;;;;5035950;28;20047;-81
2021/12/24 19:06:35;;;;;;;21.55;14.27;;;7.00;92.70;;;;;;5037957;28;20046;-81
2021/12/24 19:09:03;;;;;;;20.85;11.50;;;6.90;92.70;;;;;;5051179;28;20400;-79
2021/12/24 19:11:29;;;;;;;21.73;15.13;;;7.20;93.90;;;;;;5016172;28;20052;-79
2021/12/24 19:13:55;;;;;;;28.80;17.52;;;7.50;94.20;;;;;;5019486;28;20043;-78
2021/12/24 19:16:21;;;;;;;28.13;16.38;;;7.80;93.90;;;;;;5030370;28;20068;-85
2021/12/24 19:18:47;;;;;;;19.38;10.93;;;8.20;94.00;;;;;;5018784;28;20435;-80
2021/12/24 19:21:15;;;;;;;20.48;13.75;;;8.60;94.00;;;;;;5038538;28;20496;-84
2021/12/24 19:23:44;;;;;;;20.58;12.88;;;8.70;93.00;;;;;;5020024;28;20504;-83
2021/12/24 19:26:10;;;;;;;18.33;11.48;;;8.50;92.20;;;;;;5031752;28;20043;-87
2021/12/24 19:28:36;;;;;;;18.27;11.70;;;8.30;91.90;;;;;;5026345;28;20048;-81
2021/12/24 19:31:02;;;;;;;15.18;11.27;;;8.10;91.90;;;;;;5016278;28;20084;-83
2021/12/24 19:33:36;;;;;;;16.10;11.80;;;7.80;91.90;;;;;;5033308;28;20044;-82
2021/12/24 19:36:01;;;;;;;15.75;10.73;;;7.70;92.00;;;;;;5050775;28;20036;-83
2021/12/24 19:38:27;;;;;;;15.93;10.98;;;7.50;92.10;;;;;;5001743;28;20037;-86
2021/12/24 19:40:53;;;;;;;14.80;11.55;;;7.30;92.10;;;;;;5002318;28;20075;-83
2021/12/24 19:43:22;;;;;;;15.98;11.75;;;7.20;92.10;;;;;;5022062;28;20059;-82
2021/12/24 19:45:48;;;;;;;12.98;10.48;;;7.10;92.10;;;;;;5017634;28;20124;-82
2021/12/24 19:48:14;;;;;;;17.10;11.80;;;7.00;92.20;;;;;;5035011;28;20553;-87
2021/12/24 19:50:40;;;;;;;12.90;10.55;;;6.80;92.20;;;;;;5031233;28;20067;-84
2021/12/24 19:53:06;;;;;;;15.70;10.65;;;6.80;92.20;;;;;;5051406;28;20055;-84
2021/12/24 19:55:32;;;;;;;14.30;10.57;;;6.70;92.10;;;;;;5034108;28;20052;-83
2021/12/24 19:58:07;;;;;;;15.60;10.43;;;6.60;92.20;;;;;;5006643;28;20071;-84
2021/12/24 20:00:49;;;;;;;13.40;9.43;;;6.60;92.20;;;;;;5022562;28;20045;-85
2021/12/24 20:03:15;;;;;;;11.65;7.35;;;6.50;92.10;;;;;;5003730;28;20041;-86
2021/12/24 20:05:41;;;;;;;12.95;8.80;;;6.40;92.20;;;;;;4999910;28;20044;-86
2021/12/24 20:08:08;;;;;;;12.60;8.20;;;6.50;92.80;;;;;;4997875;28;20045;-84
2021/12/24 20:10:34;;;;;;;11.68;8.80;;;6.50;92.40;;;;;;5018236;28;20379;-84
2021/12/24 20:12:59;;;;;;;12.15;8.13;;;6.50;92.20;;;;;;5014005;28;20124;-88
2021/12/24 20:15:28;;;;;;;10.27;7.80;;;6.40;92.10;;;;;;5028334;28;20057;-86
2021/12/24 20:17:56;;;;;;;10.70;7.72;;;6.30;92.10;;;;;;4999618;28;20116;-84
2021/12/24 20:20:24;;;;;;;10.10;7.55;;;6.20;92.10;;;;;;5003493;28;20044;-83
2021/12/24 20:22:50;;;;;;;11.48;8.30;;;6.20;92.10;;;;;;5014231;28;20535;-83
2021/12/24 20:25:16;;;;;;;9.52;6.97;;;6.10;92.00;;;;;;5002550;28;20040;-84
2021/12/24 20:27:42;;;;;;;10.70;7.10;;;6.10;92.00;;;;;;5051856;28;20470;-85
2021/12/24 20:30:10;;;;;;;10.02;7.60;;;6.00;92.00;;;;;;4998477;28;20041;-85
2021/12/24 20:32:36;;;;;;;10.65;7.95;;;5.90;92.00;;;;;;5008387;28;20194;-84
2021/12/24 20:35:02;;;;;;;9.57;7.18;;;5.90;92.00;;;;;;5030973;28;20163;-83
2021/12/24 20:37:28;;;;;;;11.43;7.35;;;5.80;92.00;;;;;;5003055;28;20045;-80
2021/12/24 20:39:54;;;;;;;11.75;8.02;;;5.80;92.00;;;;;;5017038;28;20047;-83
2021/12/24 20:42:20;;;;;;;10.25;7.38;;;5.70;91.90;;;;;;5017435;28;20076;-84
2021/12/24 20:44:45;;;;;;;12.48;8.05;;;5.70;91.90;;;;;;5021083;28;20568;-85
2021/12/24 20:47:11;;;;;;;12.23;8.73;;;5.70;91.90;;;;;;5055143;28;20053;-83
2021/12/24 20:49:37;;;;;;;12.25;8.23;;;5.60;91.90;;;;;;5036537;28;20070;-88
2021/12/24 20:52:03;;;;;;;12.93;8.15;;;5.60;91.90;;;;;;5002059;28;20053;-86
2021/12/24 20:54:29;;;;;;;13.18;8.48;;;5.50;91.90;;;;;;5003278;28;20060;-85
2021/12/24 20:56:56;;;;;;;13.63;9.52;;;5.50;92.20;;;;;;4999579;28;20045;-85
2021/12/24 20:59:22;;;;;;;12.35;9.63;;;5.50;91.80;;;;;;4998334;28;20052;-84
2021/12/24 21:01:48;;;;;;;16.60;10.07;;;5.40;91.80;;;;;;5032680;28;20059;-83
2021/12/24 21:04:13;;;;;;;13.45;10.23;;;5.40;91.80;;;;;;5005116;28;20041;-83
2021/12/24 21:06:39;;;;;;;15.05;8.68;;;5.40;91.80;;;;;;5003536;28;20140;-83
2021/12/24 21:09:05;;;;;;;16.15;10.70;;;5.50;92.50;;;;;;5004655;28;20040;-83
2021/12/24 21:11:31;;;;;;;17.45;9.25;;;5.50;92.10;;;;;;5006852;28;20139;-83
2021/12/24 21:13:57;;;;;;;16.33;10.45;;;5.80;93.00;;;;;;5016885;28;20052;-81
2021/12/24 21:16:22;;;;;;;16.55;10.30;;;6.00;92.80;;;;;;5006373;28;20519;-80
2021/12/24 21:18:48;;;;;;;16.30;10.43;;;6.00;92.20;;;;;;5003675;28;20037;-88
2021/12/24 21:21:16;;;;;;;13.18;9.88;;;6.40;93.10;;;;;;5007223;28;20044;-84
2021/12/24 21:23:44;;;;;;;14.32;9.73;;;6.30;91.90;;;;;;5021307;28;20041;-83
2021/12/24 21:26:11;;;;;;;14.55;10.77;;;6.20;91.50;;;;;;5003389;28;20075;-80
2021/12/24 21:28:36;;;;;;;16.65;10.20;;;6.10;91.40;;;;;;5021438;28;20132;-81
2021/12/24 21:31:02;;;;;;;14.43;10.43;;;5.90;91.40;;;;;;5021126;28;20127;-82
2021/12/24 21:33:28;;;;;;;13.60;9.60;;;5.80;91.50;;;;;;5012927;28;20096;-86
2021/12/24 21:35:56;;;;;;;15.65;10.00;;;5.70;91.50;;;;;;5021643;28;20101;-84
2021/12/24 21:38:22;;;;;;;15.68;10.30;;;5.60;91.50;;;;;;5034744;28;20044;-86
2021/12/24 21:40:47;;;;;;;15.95;10.65;;;5.60;91.60;;;;;;5024368;28;20044;-78
2021/12/24 21:43:14;;;;;;;15.13;10.38;;;5.50;91.60;;;;;;5015811;28;20115;-79
2021/12/24 21:45:40;;;;;;;16.73;11.75;;;5.40;91.60;;;;;;5038300;28;20049;-84
2021/12/24 21:48:08;;;;;;;14.30;9.98;;;5.40;91.60;;;;;;5033213;28;20112;-84
2021/12/24 21:50:34;;;;;;;15.00;11.02;;;5.30;91.60;;;;;;4987731;28;20046;-85
2021/12/24 21:52:59;;;;;;;16.92;11.18;;;5.30;91.60;;;;;;5000696;28;20079;-80
2021/12/24 21:55:26;;;;;;;17.02;11.20;;;5.20;91.60;;;;;;5024502;28;20045;-83
2021/12/24 21:57:52;;;;;;;17.42;11.07;;;5.20;91.60;;;;;;5003393;28;20059;-83
2021/12/24 22:00:19;;;;;;;18.13;11.82;;;5.20;91.60;;;;;;5000793;28;20053;-82
2021/12/24 22:02:55;;;;;;;15.32;10.60;;;5.10;91.60;;;;;;4990788;28;20055;-80
2021/12/24 22:05:43;;;;;;;16.88;11.85;;;5.10;91.50;;;;;;5001254;28;20496;-81
2021/12/24 22:08:25;;;;;;;18.88;11.70;;;5.00;91.50;;;;;;5023137;28;20044;-80
2021/12/24 22:11:00;;;;;;;18.25;11.60;;;5.10;91.60;;;;;;5004289;28;20172;-83
2021/12/24 22:13:27;;;;;;;16.85;12.07;;;5.00;91.60;;;;;;4999585;28;20525;-82
2021/12/24 22:16:00;;;;;;;17.25;11.57;;;4.90;91.50;;;;;;5012052;28;20045;-83
2021/12/24 22:18:28;;;;;;;16.17;11.43;;;4.90;91.90;;;;;;4998878;28;20099;-82
2021/12/24 22:20:54;;;;;;;15.48;12.23;;;4.90;91.50;;;;;;5004698;28;20117;-86
2021/12/24 22:23:19;;;;;;;16.05;11.77;;;4.80;91.50;;;;;;5000458;28;20502;-82
2021/12/24 22:25:45;;;;;;;17.35;10.85;;;4.80;91.50;;;;;;5009430;28;20143;-84
2021/12/24 22:28:11;;;;;;;15.73;11.02;;;4.90;91.60;;;;;;5007172;28;20072;-82
2021/12/24 22:30:37;;;;;;;14.30;9.52;;;4.80;91.50;;;;;;4994142;28;20192;-80
2021/12/24 22:33:03;;;;;;;15.00;9.05;;;4.80;91.50;;;;;;4993652;28;20110;-82
2021/12/24 22:35:31;;;;;;;12.88;8.95;;;4.70;91.40;;;;;;4996053;28;20114;-81
2021/12/24 22:38:00;;;;;;;12.23;8.48;;;4.70;91.40;;;;;;4992696;28;20048;-86
2021/12/24 22:40:27;;;;;;;15.82;8.20;;;4.70;91.40;;;;;;4993495;28;20044;-83
2021/12/24 22:42:53;;;;;;;14.50;8.43;;;4.60;91.30;;;;;;5009477;28;20081;-89
2021/12/24 22:45:22;;;;;;;11.98;6.78;;;4.60;91.30;;;;;;4990221;28;20207;-77
2021/12/24 22:47:48;;;;;;;12.32;7.35;;;4.90;92.70;;;;;;5003877;28;20091;-82
2021/12/24 22:50:13;;;;;;;11.82;7.38;;;5.20;93.10;;;;;;5012885;28;20045;-81
2021/12/24 22:52:42;;;;;;;13.05;7.88;;;5.20;91.90;;;;;;4995257;28;20048;-82
2021/12/24 22:55:15;;;;;;;12.07;7.10;;;5.10;91.50;;;;;;4999822;28;20116;-84
2021/12/24 22:57:41;;;;;;;10.27;6.72;;;5.00;91.30;;;;;;5015086;28;20490;-83
2021/12/24 23:00:11;;;;;;;11.50;6.63;;;4.90;91.30;;;;;;5029164;28;20056;-84
2021/12/24 23:02:37;;;;;;;11.25;7.13;;;4.80;91.30;;;;;;5013636;28;20052;-85
2021/12/24 23:05:04;;;;;;;9.02;6.03;;;4.80;91.30;;;;;;5028330;28;20037;-83
2021/12/24 23:07:30;;;;;;;14.73;5.82;;;4.70;91.30;;;;;;5012874;28;20042;-83
2021/12/24 23:09:56;;;;;;;8.60;5.55;;;4.60;91.20;;;;;;5000439;28;20063;-83
2021/12/24 23:12:22;;;;;;;9.52;5.80;;;4.60;91.30;;;;;;5001133;28;20052;-82
2021/12/24 23:14:48;;;;;;;10.85;6.25;;;4.60;91.30;;;;;;5009525;28;20512;-83
2021/12/24 23:17:14;;;;;;;10.20;5.60;;;4.50;91.30;;;;;;4991564;28;20045;-81
2021/12/24 23:19:40;;;;;;;10.13;6.07;;;4.50;91.20;;;;;;5001232;28;20128;-83
2021/12/24 23:22:06;;;;;;;10.68;5.20;;;4.40;91.20;;;;;;5013135;28;20133;-83
2021/12/24 23:24:32;;;;;;;11.77;5.68;;;4.40;91.20;;;;;;5012730;28;20053;-84
2021/12/24 23:26:58;;;;;;;10.98;5.78;;;4.30;91.20;;;;;;5011898;28;20119;-83
2021/12/24 23:29:23;;;;;;;9.38;5.10;;;4.30;91.20;;;;;;5009779;28;20475;-82
2021/12/24 23:31:49;;;;;;;11.43;5.20;;;4.20;91.10;;;;;;4991499;28;20049;-80
2021/12/24 23:34:16;;;;;;;9.23;5.00;;;4.20;91.10;;;;;;5015176;28;20509;-82
2021/12/24 23:36:42;;;;;;;8.43;5.45;;;4.20;91.10;;;;;;5010561;28;20053;-83
2021/12/24 23:39:08;;;;;;;8.90;4.82;;;4.20;91.20;;;;;;5001606;28;20063;-84
2021/12/24 23:41:34;;;;;;;10.20;5.03;;;4.10;91.10;;;;;;5003238;28;20044;-82
2021/12/24 23:44:09;;;;;;;11.55;6.15;;;4.10;91.10;;;;;;5001578;28;20056;-81
2021/12/24 23:46:39;;;;;;;8.13;5.00;;;4.10;91.10;;;;;;4997638;28;20169;-80
2021/12/24 23:49:06;;;;;;;11.05;5.43;;;4.10;91.00;;;;;;5015893;28;20052;-84
2021/12/24 23:51:32;;;;;;;12.05;5.38;;;4.10;91.00;;;;;;5003251;28;20040;-84
2021/12/24 23:53:58;;;;;;;9.43;5.10;;;4.00;91.00;;;;;;5014566;28;20064;-85
2021/12/24 23:56:25;;;;;;;8.50;4.60;;;4.00;91.00;;;;;;5002752;28;20041;-83
2021/12/24 23:58:51;;;;;;;9.20;4.68;;;3.90;91.00;;;;;;5020933;28;20182;-83
